sensor_id;sensor_type;location;lat;lon;timestamp;temperature;humidity
67165;SHT31;54093;50.014;19.984;2022-07-21T00:07:21;17.85;79.82
67165;SHT31;54093;50.014;19.984;2022-07-21T00:16:42;17.79;79.67
67165;SHT31;54093;50.014;19.984;2022-07-21T00:26:03;17.75;79.74
67165;SHT31;54093;50.014;19.984;2022-07-21T00:35:23;17.55;80.74
67165;SHT31;54093;50.014;19.984;2022-07-21T00:44:44;17.52;80.47
67165;SHT31;54093;50.014;19.984;2022-07-21T00:54:05;17.41;80.91
67165;SHT31;54093;50.014;19.984;2022-07-21T01:03:26;17.38;81.13
67165;SHT31;54093;50.014;19.984;2022-07-21T01:12:47;17.26;81.21
67165;SHT31;54093;50.014;19.984;2022-07-21T01:22:08;17.23;80.80
67165;SHT31;54093;50.014;19.984;2022-07-21T01:31:29;17.07;81.61
67165;SHT31;54093;50.014;19.984;2022-07-21T01:40:56;16.93;82.25
67165;SHT31;54093;50.014;19.984;2022-07-21T01:50:35;16.90;81.75
67165;SHT31;54093;50.014;19.984;2022-07-21T01:59:56;16.83;81.32
67165;SHT31;54093;50.014;19.984;2022-07-21T02:09:17;16.76;82.45
67165;SHT31;54093;50.014;19.984;2022-07-21T02:18:38;16.75;82.92
67165;SHT31;54093;50.014;19.984;2022-07-21T02:27:59;16.79;82.82
67165;SHT31;54093;50.014;19.984;2022-07-21T02:37:20;16.69;82.93
67165;SHT31;54093;50.014;19.984;2022-07-21T02:46:40;16.61;83.26
67165;SHT31;54093;50.014;19.984;2022-07-21T02:56:01;16.61;83.16
67165;SHT31;54093;50.014;19.984;2022-07-21T03:05:22;16.62;82.34
67165;SHT31;54093;50.014;19.984;2022-07-21T03:14:43;16.54;82.43
67165;SHT31;54093;50.014;19.984;2022-07-21T03:24:04;16.49;83.28
67165;SHT31;54093;50.014;19.984;2022-07-21T03:33:28;16.51;83.88
67165;SHT31;54093;50.014;19.984;2022-07-21T03:42:50;16.51;84.48
67165;SHT31;54093;50.014;19.984;2022-07-21T03:52:11;16.62;85.11
67165;SHT31;54093;50.014;19.984;2022-07-21T04:01:32;16.82;85.14
67165;SHT31;54093;50.014;19.984;2022-07-21T04:10:53;17.04;85.08
67165;SHT31;54093;50.014;19.984;2022-07-21T04:20:15;17.23;84.64
67165;SHT31;54093;50.014;19.984;2022-07-21T04:29:36;17.48;84.41
67165;SHT31;54093;50.014;19.984;2022-07-21T04:38:56;17.68;84.20
67165;SHT31;54093;50.014;19.984;2022-07-21T04:48:17;17.92;83.50
67165;SHT31;54093;50.014;19.984;2022-07-21T04:57:42;18.17;81.17
67165;SHT31;54093;50.014;19.984;2022-07-21T05:07:03;18.50;81.33
67165;SHT31;54093;50.014;19.984;2022-07-21T05:16:24;18.72;80.75
67165;SHT31;54093;50.014;19.984;2022-07-21T05:25:44;18.99;79.93
67165;SHT31;54093;50.014;19.984;2022-07-21T05:35:05;19.32;78.92
67165;SHT31;54093;50.014;19.984;2022-07-21T05:44:31;19.64;78.26
67165;SHT31;54093;50.014;19.984;2022-07-21T05:53:52;19.97;77.58
67165;SHT31;54093;50.014;19.984;2022-07-21T06:03:12;20.31;76.30
67165;SHT31;54093;50.014;19.984;2022-07-21T06:12:33;20.60;75.06
67165;SHT31;54093;50.014;19.984;2022-07-21T06:21:54;20.91;73.44
67165;SHT31;54093;50.014;19.984;2022-07-21T06:31:16;21.31;73.38
67165;SHT31;54093;50.014;19.984;2022-07-21T06:40:37;21.71;72.09
67165;SHT31;54093;50.014;19.984;2022-07-21T06:49:58;22.14;70.60
67165;SHT31;54093;50.014;19.984;2022-07-21T06:59:23;22.68;68.82
67165;SHT31;54093;50.014;19.984;2022-07-21T07:08:43;23.29;66.67
67165;SHT31;54093;50.014;19.984;2022-07-21T07:18:04;24.09;63.71
67165;SHT31;54093;50.014;19.984;2022-07-21T07:27:25;25.10;59.61
67165;SHT31;54093;50.014;19.984;2022-07-21T07:36:46;31.64;44.81
67165;SHT31;54093;50.014;19.984;2022-07-21T07:46:07;38.66;30.79
67165;SHT31;54093;50.014;19.984;2022-07-21T07:55:31;41.42;27.66
67165;SHT31;54093;50.014;19.984;2022-07-21T08:04:52;41.37;25.73
67165;SHT31;54093;50.014;19.984;2022-07-21T08:14:13;41.63;26.84
67165;SHT31;54093;50.014;19.984;2022-07-21T08:23:34;43.39;25.05
67165;SHT31;54093;50.014;19.984;2022-07-21T08:32:54;43.34;24.23
67165;SHT31;54093;50.014;19.984;2022-07-21T08:42:16;42.07;25.14
67165;SHT31;54093;50.014;19.984;2022-07-21T08:51:37;41.12;27.61
67165;SHT31;54093;50.014;19.984;2022-07-21T09:00:58;40.44;27.23
67165;SHT31;54093;50.014;19.984;2022-07-21T09:10:23;40.62;27.29
67165;SHT31;54093;50.014;19.984;2022-07-21T09:19:46;40.36;26.01
67165;SHT31;54093;50.014;19.984;2022-07-21T09:29:11;40.14;27.24
67165;SHT31;54093;50.014;19.984;2022-07-21T09:38:37;40.17;27.84
67165;SHT31;54093;50.014;19.984;2022-07-21T09:47:58;39.76;30.17
67165;SHT31;54093;50.014;19.984;2022-07-21T09:57:20;38.56;30.64
67165;SHT31;54093;50.014;19.984;2022-07-21T10:06:41;37.38;31.03
67165;SHT31;54093;50.014;19.984;2022-07-21T10:16:02;36.95;29.37
67165;SHT31;54093;50.014;19.984;2022-07-21T10:25:24;36.69;28.74
67165;SHT31;54093;50.014;19.984;2022-07-21T10:34:45;37.26;30.24
67165;SHT31;54093;50.014;19.984;2022-07-21T10:54:20;37.48;29.83
67165;SHT31;54093;50.014;19.984;2022-07-21T11:03:42;37.65;29.63
67165;SHT31;54093;50.014;19.984;2022-07-21T11:13:04;37.20;29.16
67165;SHT31;54093;50.014;19.984;2022-07-21T11:22:25;37.50;28.13
67165;SHT31;54093;50.014;19.984;2022-07-21T11:31:46;37.19;28.56
67165;SHT31;54093;50.014;19.984;2022-07-21T11:50:35;37.99;28.72
67165;SHT31;54093;50.014;19.984;2022-07-21T11:59:57;38.01;28.22
67165;SHT31;54093;50.014;19.984;2022-07-21T12:09:18;37.55;31.33
67165;SHT31;54093;50.014;19.984;2022-07-21T12:18:39;37.70;29.28
67165;SHT31;54093;50.014;19.984;2022-07-21T12:28:00;37.53;28.52
67165;SHT31;54093;50.014;19.984;2022-07-21T12:47:32;37.74;28.22
67165;SHT31;54093;50.014;19.984;2022-07-21T12:56:53;37.93;27.59
67165;SHT31;54093;50.014;19.984;2022-07-21T13:06:14;38.09;28.86
67165;SHT31;54093;50.014;19.984;2022-07-21T13:15:37;38.09;28.44
67165;SHT31;54093;50.014;19.984;2022-07-21T13:24:58;37.74;31.16
67165;SHT31;54093;50.014;19.984;2022-07-21T13:34:18;37.67;28.83
67165;SHT31;54093;50.014;19.984;2022-07-21T13:43:39;37.64;28.43
67165;SHT31;54093;50.014;19.984;2022-07-21T13:53:00;37.50;28.22
67165;SHT31;54093;50.014;19.984;2022-07-21T14:02:21;37.10;28.18
67165;SHT31;54093;50.014;19.984;2022-07-21T14:11:42;36.76;29.84
67165;SHT31;54093;50.014;19.984;2022-07-21T14:21:03;36.34;30.72
67165;SHT31;54093;50.014;19.984;2022-07-21T14:30:26;35.96;33.01
67165;SHT31;54093;50.014;19.984;2022-07-21T14:39:48;35.35;33.86
67165;SHT31;54093;50.014;19.984;2022-07-21T14:49:09;34.94;35.41
67165;SHT31;54093;50.014;19.984;2022-07-21T14:58:30;34.60;32.29
67165;SHT31;54093;50.014;19.984;2022-07-21T15:07:51;34.26;33.37
67165;SHT31;54093;50.014;19.984;2022-07-21T15:17:12;33.79;33.67
67165;SHT31;54093;50.014;19.984;2022-07-21T15:26:33;33.40;32.90
67165;SHT31;54093;50.014;19.984;2022-07-21T15:35:54;33.13;35.67
67165;SHT31;54093;50.014;19.984;2022-07-21T15:45:15;32.77;35.55
67165;SHT31;54093;50.014;19.984;2022-07-21T15:54:36;32.36;35.75
67165;SHT31;54093;50.014;19.984;2022-07-21T16:03:57;31.92;37.26
67165;SHT31;54093;50.014;19.984;2022-07-21T16:13:17;31.57;38.94
67165;SHT31;54093;50.014;19.984;2022-07-21T16:22:39;31.02;38.96
67165;SHT31;54093;50.014;19.984;2022-07-21T16:32:04;30.54;40.49
67165;SHT31;54093;50.014;19.984;2022-07-21T16:41:26;29.95;43.34
67165;SHT31;54093;50.014;19.984;2022-07-21T16:50:47;29.45;39.76
67165;SHT31;54093;50.014;19.984;2022-07-21T17:00:08;29.00;45.10
67165;SHT31;54093;50.014;19.984;2022-07-21T17:09:32;28.55;43.45
67165;SHT31;54093;50.014;19.984;2022-07-21T17:18:53;28.18;44.38
67165;SHT31;54093;50.014;19.984;2022-07-21T17:28:14;27.78;45.36
67165;SHT31;54093;50.014;19.984;2022-07-21T17:37:35;27.42;46.83
67165;SHT31;54093;50.014;19.984;2022-07-21T17:46:56;27.10;48.26
67165;SHT31;54093;50.014;19.984;2022-07-21T17:56:39;26.74;49.13
67165;SHT31;54093;50.014;19.984;2022-07-21T18:06:00;26.38;53.34
67165;SHT31;54093;50.014;19.984;2022-07-21T18:15:20;25.94;57.54
67165;SHT31;54093;50.014;19.984;2022-07-21T18:24:41;25.48;59.97
67165;SHT31;54093;50.014;19.984;2022-07-21T18:34:03;24.97;61.93
67165;SHT31;54093;50.014;19.984;2022-07-21T18:43:23;24.21;69.18
67165;SHT31;54093;50.014;19.984;2022-07-21T18:52:44;23.46;70.47
67165;SHT31;54093;50.014;19.984;2022-07-21T19:02:05;23.06;71.52
67165;SHT31;54093;50.014;19.984;2022-07-21T19:11:26;22.65;71.70
67165;SHT31;54093;50.014;19.984;2022-07-21T19:20:49;22.27;73.44
67165;SHT31;54093;50.014;19.984;2022-07-21T19:30:10;21.97;73.73
67165;SHT31;54093;50.014;19.984;2022-07-21T19:39:33;21.75;73.41
67165;SHT31;54093;50.014;19.984;2022-07-21T19:48:54;21.54;73.24
67165;SHT31;54093;50.014;19.984;2022-07-21T19:58:14;21.39;73.24
67165;SHT31;54093;50.014;19.984;2022-07-21T20:07:36;21.18;72.87
67165;SHT31;54093;50.014;19.984;2022-07-21T20:16:56;20.97;72.52
67165;SHT31;54093;50.014;19.984;2022-07-21T20:26:17;20.76;74.53
67165;SHT31;54093;50.014;19.984;2022-07-21T20:35:38;20.46;74.15
67165;SHT31;54093;50.014;19.984;2022-07-21T20:44:59;20.35;73.33
67165;SHT31;54093;50.014;19.984;2022-07-21T20:54:19;20.15;74.54
67165;SHT31;54093;50.014;19.984;2022-07-21T21:03:41;20.00;74.91
67165;SHT31;54093;50.014;19.984;2022-07-21T21:13:03;19.63;77.37
67165;SHT31;54093;50.014;19.984;2022-07-21T21:22:24;19.56;75.03
67165;SHT31;54093;50.014;19.984;2022-07-21T21:31:44;19.40;76.27
67165;SHT31;54093;50.014;19.984;2022-07-21T21:41:05;19.30;76.28
67165;SHT31;54093;50.014;19.984;2022-07-21T21:50:26;19.11;77.82
67165;SHT31;54093;50.014;19.984;2022-07-21T21:59:47;18.89;79.23
67165;SHT31;54093;50.014;19.984;2022-07-21T22:09:08;18.75;78.17
67165;SHT31;54093;50.014;19.984;2022-07-21T22:18:29;18.72;79.80
67165;SHT31;54093;50.014;19.984;2022-07-21T22:27:49;18.72;80.17
67165;SHT31;54093;50.014;19.984;2022-07-21T22:37:10;18.57;79.04
67165;SHT31;54093;50.014;19.984;2022-07-21T22:46:31;18.44;79.13
67165;SHT31;54093;50.014;19.984;2022-07-21T22:55:52;18.33;79.55
67165;SHT31;54093;50.014;19.984;2022-07-21T23:05:12;18.22;78.53
67165;SHT31;54093;50.014;19.984;2022-07-21T23:14:33;18.13;79.57
67165;SHT31;54093;50.014;19.984;2022-07-21T23:23:54;18.02;80.90
67165;SHT31;54093;50.014;19.984;2022-07-21T23:33:15;17.93;80.59
67165;SHT31;54093;50.014;19.984;2022-07-21T23:42:35;17.89;80.51
67165;SHT31;54093;50.014;19.984;2022-07-21T23:51:56;17.83;80.91
